Benghazi/Benina, Libya
Current Conditions -  °F | °C
As of 1:50 AM on Sunday 21 Dec 2014 (Local Time) from LGSA Reporting Station
Few Clouds Few Clouds  
Wind Chill: 55°   Ceiling: Unl
Heat Index: 55°   Visibility: 6mi
Dew Point: 48°   Wind: 9mph
Humidity: 77%   Direction: 270°W
Pressure: 30.15"   Gusts: NA
Location:  32.08°N, 20.27°E
Report Text: LGSA 202250Z 27008KT 9999 FEW020 13/09 Q1021
Loading
Personal Weather Stations






























Interactive Weather Map New forecast layout! Learn more

10-Day Weather Forecast

Advertisements
Track Severe Weather on mobile